Time,TemperatureF,DewpointF,PressureIn,WindDirection,WindDirectionDegrees,WindSpeedMPH,WindSpeedGustMPH,Humidity,HourlyPrecipIn,Conditions,Clouds,dailyrainin,SoftwareType,DateUTC
2013-03-14 00:22:00,39.0,-99.9,29.97,North,-999,-999.0,-999.0,-999,-99.99,,,-99.99,,2013-03-14 04:22:00,
2013-03-14 00:33:00,39.0,-99.9,29.97,North,-999,-999.0,-999.0,-999,-99.99,,,-99.99,,2013-03-14 04:33:00,
2013-03-14 00:42:00,39.0,-99.9,29.97,North,-999,-999.0,-999.0,-999,-99.99,,,-99.99,,2013-03-14 04:42:00,
2013-03-14 00:52:00,36.0,-99.9,29.98,North,-999,-999.0,-999.0,-999,-99.99,,,-99.99,,2013-03-14 04:52:00,
2013-03-14 01:22:00,36.0,-99.9,29.98,North,-999,-999.0,-999.0,-999,-99.99,,,-99.99,,2013-03-14 05:22:00,
2013-03-14 01:33:00,36.0,-99.9,29.98,North,-999,-999.0,-999.0,-999,-99.99,,,-99.99,,2013-03-14 05:33:00,
2013-03-14 01:43:00,36.0,-99.9,29.98,North,-999,-999.0,-999.0,-999,-99.99,,,-99.99,,2013-03-14 05:43:00,
2013-03-14 01:52:00,35.0,-99.9,29.99,North,-999,-999.0,7.0,-999,-99.99,,,-99.99,,2013-03-14 05:52:00,
2013-03-14 02:22:00,35.0,-99.9,29.99,North,-999,-999.0,7.0,-999,-99.99,,,-99.99,,2013-03-14 06:22:00,
2013-03-14 02:33:00,35.0,-99.9,29.99,North,-999,-999.0,7.0,-999,-99.99,,,-99.99,,2013-03-14 06:33:00,
2013-03-14 02:42:00,35.0,-99.9,29.99,North,-999,-999.0,7.0,-999,-99.99,,,-99.99,,2013-03-14 06:42:00,
2013-03-14 02:52:00,34.0,-99.9,30.00,North,-999,-999.0,-999.0,-999,-99.99,,,-99.99,,2013-03-14 06:52:00,
2013-03-14 03:22:00,34.0,-99.9,30.00,North,-999,-999.0,-999.0,-999,-99.99,,,-99.99,,2013-03-14 07:22:00,
2013-03-14 03:32:00,34.0,-99.9,30.00,North,-999,-999.0,-999.0,-999,-99.99,,,-99.99,,2013-03-14 07:32:00,
2013-03-14 03:43:00,34.0,-99.9,30.00,North,-999,-999.0,-999.0,-999,-99.99,,,-99.99,,2013-03-14 07:43:00,
2013-03-14 03:52:00,33.0,-99.9,29.98,NW,325,8.0,11.0,-999,-99.99,,,-99.99,,2013-03-14 07:52:00,
2013-03-14 04:22:00,33.0,-99.9,29.98,NW,325,8.0,11.0,-999,-99.99,,,-99.99,,2013-03-14 08:22:00,
2013-03-14 04:32:00,33.0,-99.9,29.98,NW,325,8.0,11.0,-999,-99.99,,,-99.99,,2013-03-14 08:32:00,
2013-03-14 04:42:00,33.0,-99.9,29.98,NW,325,8.0,11.0,-999,-99.99,,,-99.99,,2013-03-14 08:42:00,
2013-03-14 04:52:00,32.0,-99.9,29.98,NNW,342,4.0,5.0,-999,-99.99,,,-99.99,,2013-03-14 08:52:00,
2013-03-14 05:22:00,32.0,-99.9,29.98,NNW,342,4.0,5.0,-999,-99.99,,,-99.99,,2013-03-14 09:22:00,
2013-03-14 05:32:00,32.0,-99.9,29.98,NNW,342,4.0,5.0,-999,-99.99,,,-99.99,,2013-03-14 09:32:00,
2013-03-14 05:42:00,32.0,-99.9,29.98,NNW,342,4.0,5.0,-999,-99.99,,,-99.99,,2013-03-14 09:42:00,
2013-03-14 05:52:00,31.0,-99.9,30.00,North,-999,6.0,8.0,-999,-99.99,,,-99.99,,2013-03-14 09:52:00,
2013-03-14 06:32:00,31.0,-99.9,30.00,North,-999,6.0,8.0,-999,-99.99,,,-99.99,,2013-03-14 10:32:00,
2013-03-14 06:42:00,31.0,-99.9,30.00,North,-999,6.0,8.0,-999,-99.99,,,-99.99,,2013-03-14 10:42:00,
2013-03-14 06:52:00,32.0,-99.9,30.01,NW,323,8.0,12.0,-999,-99.99,,,-99.99,,2013-03-14 10:52:00,
2013-03-14 07:22:00,32.0,-99.9,30.01,NW,323,8.0,12.0,-999,-99.99,,,-99.99,,2013-03-14 11:22:00,
2013-03-14 07:33:00,32.0,-99.9,30.01,NW,323,8.0,12.0,-999,-99.99,,,-99.99,,2013-03-14 11:33:00,
2013-03-14 07:42:00,32.0,-99.9,30.01,NW,323,8.0,12.0,-999,-99.99,,,-99.99,,2013-03-14 11:42:00,
2013-03-14 07:52:00,33.0,-99.9,30.03,North,-999,-999.0,14.0,-999,-99.99,,,-99.99,,2013-03-14 11:52:00,
2013-03-14 08:22:00,33.0,-99.9,30.03,North,-999,-999.0,14.0,-999,-99.99,,,-99.99,,2013-03-14 12:22:00,
2013-03-14 08:33:00,33.0,-99.9,30.03,North,-999,-999.0,14.0,-999,-99.99,,,-99.99,,2013-03-14 12:33:00,
2013-03-14 08:43:00,33.0,-99.9,30.03,North,-999,-999.0,14.0,-999,-99.99,,,-99.99,,2013-03-14 12:43:00,
2013-03-14 08:52:00,34.0,-99.9,30.03,NW,312,5.0,18.0,-999,-99.99,,,-99.99,,2013-03-14 12:52:00,
2013-03-14 09:22:00,34.0,-99.9,30.03,NW,312,5.0,18.0,-999,-99.99,,,-99.99,,2013-03-14 13:22:00,
2013-03-14 09:32:00,34.0,-99.9,30.03,NW,312,5.0,18.0,-999,-99.99,,,-99.99,,2013-03-14 13:32:00,
2013-03-14 09:43:00,34.0,-99.9,30.03,NW,312,5.0,18.0,-999,-99.99,,,-99.99,,2013-03-14 13:43:00,
2013-03-14 09:52:00,34.0,-99.9,30.03,North,-999,-999.0,15.0,-999,-99.99,,,-99.99,,2013-03-14 13:52:00,
2013-03-14 10:22:00,34.0,-99.9,30.03,North,-999,-999.0,15.0,-999,-99.99,,,-99.99,,2013-03-14 14:22:00,
2013-03-14 10:32:00,34.0,-99.9,30.03,North,-999,-999.0,15.0,-999,-99.99,,,-99.99,,2013-03-14 14:32:00,
2013-03-14 10:43:00,34.0,-99.9,30.03,North,-999,-999.0,15.0,-999,-99.99,,,-99.99,,2013-03-14 14:43:00,
2013-03-14 10:52:00,36.0,-99.9,30.02,North,-999,-999.0,22.0,-999,-99.99,,,-99.99,,2013-03-14 14:52:00,
2013-03-14 11:22:00,36.0,-99.9,30.02,North,-999,-999.0,22.0,-999,-99.99,,,-99.99,,2013-03-14 15:22:00,
2013-03-14 11:33:00,36.0,-99.9,30.02,North,-999,-999.0,22.0,-999,-99.99,,,-99.99,,2013-03-14 15:33:00,
2013-03-14 11:43:00,36.0,-99.9,30.02,North,-999,-999.0,22.0,-999,-99.99,,,-99.99,,2013-03-14 15:43:00,
2013-03-14 12:52:00,38.0,-99.9,29.99,North,-999,-999.0,20.0,-999,-99.99,,,-99.99,,2013-03-14 16:52:00,
2013-03-14 13:33:00,38.0,-99.9,29.99,North,-999,-999.0,20.0,-999,-99.99,,,-99.99,,2013-03-14 17:33:00,
2013-03-14 13:42:00,38.0,-99.9,29.99,North,-999,-999.0,20.0,-999,-99.99,,,-99.99,,2013-03-14 17:42:00,
2013-03-14 13:52:00,40.0,-99.9,29.96,North,-999,-999.0,15.0,-999,-99.99,,,-99.99,,2013-03-14 17:52:00,
2013-03-14 14:23:00,40.0,-99.9,29.96,North,-999,-999.0,15.0,-999,-99.99,,,-99.99,,2013-03-14 18:23:00,
2013-03-14 14:33:00,40.0,-99.9,29.96,North,-999,-999.0,15.0,-999,-99.99,,,-99.99,,2013-03-14 18:33:00,
2013-03-14 14:43:00,40.0,-99.9,29.96,North,-999,-999.0,15.0,-999,-99.99,,,-99.99,,2013-03-14 18:43:00,
2013-03-14 14:52:00,41.0,-99.9,29.95,North,-999,3.0,-999.0,-999,-99.99,,,-99.99,,2013-03-14 18:52:00,
2013-03-14 15:23:00,41.0,-99.9,29.95,North,-999,3.0,-999.0,-999,-99.99,,,-99.99,,2013-03-14 19:23:00,
2013-03-14 15:32:00,41.0,-99.9,29.95,North,-999,3.0,-999.0,-999,-99.99,,,-99.99,,2013-03-14 19:32:00,
2013-03-14 15:43:00,41.0,-99.9,29.95,North,-999,3.0,-999.0,-999,-99.99,,,-99.99,,2013-03-14 19:43:00,
2013-03-14 15:52:00,42.0,-99.9,29.94,North,-999,-999.0,5.0,-999,-99.99,,,-99.99,,2013-03-14 19:52:00,
2013-03-14 16:22:00,42.0,-99.9,29.94,North,-999,-999.0,5.0,-999,-99.99,,,-99.99,,2013-03-14 20:22:00,
2013-03-14 16:32:00,42.0,-99.9,29.94,North,-999,-999.0,5.0,-999,-99.99,,,-99.99,,2013-03-14 20:32:00,
2013-03-14 16:43:00,42.0,-99.9,29.94,North,-999,-999.0,5.0,-999,-99.99,,,-99.99,,2013-03-14 20:43:00,
2013-03-14 16:52:00,42.0,-99.9,29.94,North,-999,-999.0,7.0,-999,-99.99,,,-99.99,,2013-03-14 20:52:00,
2013-03-14 17:23:00,42.0,-99.9,29.94,North,-999,-999.0,7.0,-999,-99.99,,,-99.99,,2013-03-14 21:23:00,
2013-03-14 17:33:00,42.0,-99.9,29.94,North,-999,-999.0,7.0,-999,-99.99,,,-99.99,,2013-03-14 21:33:00,
2013-03-14 17:44:00,42.0,-99.9,29.94,North,-999,-999.0,7.0,-999,-99.99,,,-99.99,,2013-03-14 21:44:00,
2013-03-14 17:52:00,41.0,-99.9,29.95,North,-999,-999.0,5.0,-999,-99.99,,,-99.99,,2013-03-14 21:52:00,
2013-03-14 18:23:00,41.0,-99.9,29.95,North,-999,-999.0,5.0,-999,-99.99,,,-99.99,,2013-03-14 22:23:00,
2013-03-14 18:33:00,41.0,-99.9,29.95,North,-999,-999.0,5.0,-999,-99.99,,,-99.99,,2013-03-14 22:33:00,
2013-03-14 18:42:00,41.0,-99.9,29.95,North,-999,-999.0,5.0,-999,-99.99,,,-99.99,,2013-03-14 22:42:00,
2013-03-14 18:52:00,40.0,-99.9,29.97,North,-999,-999.0,-999.0,-999,-99.99,,,-99.99,,2013-03-14 22:52:00,
2013-03-14 19:23:00,40.0,-99.9,29.97,North,-999,-999.0,-999.0,-999,-99.99,,,-99.99,,2013-03-14 23:23:00,
2013-03-14 19:33:00,40.0,-99.9,29.97,North,-999,-999.0,-999.0,-999,-99.99,,,-99.99,,2013-03-14 23:33:00,
2013-03-14 19:43:00,40.0,-99.9,29.97,North,-999,-999.0,-999.0,-999,-99.99,,,-99.99,,2013-03-14 23:43:00,
2013-03-14 19:52:00,38.0,-99.9,29.99,North,-999,-999.0,-999.0,-999,-99.99,,,-99.99,,2013-03-14 23:52:00,
2013-03-14 20:23:00,38.0,-99.9,29.99,North,-999,-999.0,-999.0,-999,-99.99,,,-99.99,,2013-03-15 00:23:00,
2013-03-14 20:33:00,38.0,-99.9,29.99,North,-999,-999.0,-999.0,-999,-99.99,,,-99.99,,2013-03-15 00:33:00,
2013-03-14 20:43:00,38.0,-99.9,29.99,North,-999,-999.0,-999.0,-999,-99.99,,,-99.99,,2013-03-15 00:43:00,
2013-03-14 20:52:00,38.0,-99.9,30.00,North,-999,-999.0,-999.0,-999,-99.99,,,-99.99,,2013-03-15 00:52:00,
2013-03-14 21:23:00,38.0,-99.9,30.00,North,-999,-999.0,-999.0,-999,-99.99,,,-99.99,,2013-03-15 01:23:00,
2013-03-14 21:33:00,38.0,-99.9,30.00,North,-999,-999.0,-999.0,-999,-99.99,,,-99.99,,2013-03-15 01:33:00,
2013-03-14 21:43:00,38.0,-99.9,30.00,North,-999,-999.0,-999.0,-999,-99.99,,,-99.99,,2013-03-15 01:43:00,
2013-03-14 21:52:00,37.0,-99.9,30.01,North,-999,-999.0,8.0,-999,-99.99,,,-99.99,,2013-03-15 01:52:00,
2013-03-14 22:22:00,37.0,-99.9,30.01,North,-999,-999.0,8.0,-999,-99.99,,,-99.99,,2013-03-15 02:22:00,
2013-03-14 22:32:00,37.0,-99.9,30.01,North,-999,-999.0,8.0,-999,-99.99,,,-99.99,,2013-03-15 02:32:00,
2013-03-14 22:42:00,37.0,-99.9,30.01,North,-999,-999.0,8.0,-999,-99.99,,,-99.99,,2013-03-15 02:42:00,
2013-03-14 22:52:00,37.0,-99.9,30.02,North,-999,-999.0,4.0,-999,-99.99,,,-99.99,,2013-03-15 02:52:00,
2013-03-14 23:33:00,37.0,-99.9,30.02,North,-999,-999.0,4.0,-999,-99.99,,,-99.99,,2013-03-15 03:33:00,
2013-03-14 23:43:00,37.0,-99.9,30.02,North,-999,-999.0,4.0,-999,-99.99,,,-99.99,,2013-03-15 03:43:00,
2013-03-14 23:52:00,37.0,-99.9,30.02,North,-999,-999.0,-999.0,-999,-99.99,,,-99.99,,2013-03-15 03:52:00,